San Francisco, California
Traffic Map
Current Weather Conditions
San Francisco, California
Clear
Clear
76°
Feels Like: 76°
Wind Chill: 76° Ceiling: Unl
Heat Index: 76° Visibility: 10mi
Dew Point: 58° Wind: 3mph
Humidity: 54% Direction: 10° (N)
Pressure: 30.06in Gusts: 0mph
Raw Report DataKSFO 262256Z 01003KT 10SM CLR 24/14 A3006 RMK AO2 SLP180 T02440144
Traffic Incident Summary
Active as of:
Severity:
Category:
InformationThere was an issue retrieving the traffic information for this location. Please try a different location or try again shortly.
Advertisements
Track Severe Weather on mobile